Time;durP1;ratioP1;P1;durP2;ratioP2;P2;SDS_P1;SDS_P2;PMS_P1;PMS_P2;Temp;Humidity;BMP_temperature;BMP_pressure;BME280_temperature;BME280_humidity;BME280_pressure;Samples;Min_cycle;Max_cycle;Signal;HPM_P1;HPM_P2
2023/03/11 00:01:39;;;;;;;7.10;1.55;;;;;;;0.50;100.00;100698.47;4972843;28;20039;-58
2023/03/11 00:04:05;;;;;;;3.97;0.85;;;;;;;0.33;100.00;100684.56;4972814;28;20031;-56
2023/03/11 00:06:30;;;;;;;6.28;0.77;;;;;;;-0.08;100.00;100629.06;4987593;28;20035;-56
2023/03/11 00:08:56;;;;;;;2.22;1.17;;;;;;;0.26;100.00;100687.09;4972556;28;20039;-57
2023/03/11 00:11:21;;;;;;;5.07;0.90;;;;;;;0.39;100.00;100712.19;4972066;28;20035;-57
2023/03/11 00:13:47;;;;;;;4.90;0.90;;;;;;;0.41;100.00;100718.25;4972727;28;20030;-57
2023/03/11 00:16:12;;;;;;;4.82;1.20;;;;;;;0.30;100.00;100699.19;4972670;28;20089;-53
2023/03/11 00:18:37;;;;;;;3.83;1.10;;;;;;;0.38;100.00;100719.09;4972433;28;20043;-56
2023/03/11 00:21:03;;;;;;;4.05;0.77;;;;;;;0.08;100.00;100650.75;4970140;28;20034;-58
2023/03/11 00:23:28;;;;;;;4.80;1.05;;;;;;;0.54;100.00;100727.84;4969587;28;20038;-57
2023/03/11 00:25:54;;;;;;;3.50;0.68;;;;;;;0.52;100.00;100729.56;4970206;28;20219;-57
2023/03/11 00:28:21;;;;;;;2.90;0.90;;;;;;;0.45;100.00;100741.59;4972331;28;20055;-55
2023/03/11 00:30:46;;;;;;;2.80;0.90;;;;;;;0.42;100.00;100761.41;4987359;28;20054;-55
2023/03/11 00:33:13;;;;;;;3.00;1.30;;;;;;;0.35;100.00;100751.91;4978001;28;20081;-55
2023/03/11 00:35:39;;;;;;;3.30;0.68;;;;;;;0.35;100.00;100755.31;4971187;28;20053;-56
2023/03/11 00:38:06;;;;;;;2.97;0.90;;;;;;;0.29;100.00;100759.63;4970350;28;20467;-54
2023/03/11 00:40:33;;;;;;;3.70;0.90;;;;;;;0.14;100.00;100741.38;4971413;28;20031;-56
2023/03/11 00:42:58;;;;;;;2.47;0.90;;;;;;;0.01;100.00;100724.84;4971097;28;20482;-55
2023/03/11 00:45:25;;;;;;;5.22;0.90;;;;;;;0.23;100.00;100756.97;4972447;28;20081;-56
2023/03/11 00:47:51;;;;;;;2.03;0.70;;;;;;;-0.21;100.00;100672.09;4987067;28;20506;-55
2023/03/11 00:50:19;;;;;;;2.65;1.00;;;;;;;0.25;100.00;100756.13;4972877;28;20078;-56
2023/03/11 00:52:46;;;;;;;4.20;0.85;;;;;;;-0.18;100.00;100692.81;4975622;28;20030;-55
2023/03/11 00:55:14;;;;;;;2.88;1.20;;;;;;;0.22;100.00;100766.47;4974827;28;20042;-57
2023/03/11 00:57:39;;;;;;;3.72;0.93;;;;;;;0.22;100.00;100763.00;4975605;28;20039;-57
2023/03/11 01:00:10;;;;;;;4.13;0.90;;;;;;;-0.28;100.00;100678.06;4975593;28;20394;-57
2023/03/11 01:02:35;;;;;;;6.63;0.85;;;;;;;0.22;100.00;100763.00;4989999;28;20034;-56
2023/03/11 01:05:00;;;;;;;4.22;0.98;;;;;;;0.11;100.00;100752.56;4989990;28;20090;-55
2023/03/11 01:07:26;;;;;;;10.18;1.35;;;;;;;0.14;100.00;100764.66;4974991;28;20487;-57
2023/03/11 01:09:51;;;;;;;6.50;1.15;;;;;;;0.04;100.00;100744.72;4975650;28;20398;-54
2023/03/11 01:12:16;;;;;;;3.42;0.75;;;;;;;0.02;100.00;100746.44;4974855;28;20497;-57
2023/03/11 01:14:42;;;;;;;4.72;0.73;;;;;;;0.05;100.00;100768.03;4975559;28;20363;-56
2023/03/11 01:17:07;;;;;;;3.05;0.95;;;;;;;0.07;100.00;100768.03;4975050;28;20042;-54
2023/03/11 01:19:33;;;;;;;3.92;0.90;;;;;;;0.03;100.00;100768.88;4975198;28;20039;-55
2023/03/11 01:21:58;;;;;;;3.80;1.10;;;;;;;-0.02;100.00;100781.75;4975135;28;20035;-56
2023/03/11 01:24:23;;;;;;;5.32;0.98;;;;;;;-0.07;100.00;100783.44;4975041;28;20045;-55
2023/03/11 01:26:49;;;;;;;2.00;0.60;;;;;;;-0.14;100.00;100777.34;4973805;28;20150;-56
2023/03/11 01:29:14;;;;;;;6.50;1.30;;;;;;;-0.19;100.00;100779.03;4973060;28;20130;-57
2023/03/11 01:31:39;;;;;;;4.50;1.20;;;;;;;-0.25;100.00;100768.59;4974627;28;20223;-55
2023/03/11 01:34:05;;;;;;;5.68;1.33;;;;;;;-0.26;100.00;100773.75;4973583;28;20035;-53
2023/03/11 01:36:30;;;;;;;7.18;1.15;;;;;;;-0.82;100.00;100682.69;4974902;28;20035;-56
2023/03/11 01:38:55;;;;;;;1.90;0.95;;;;;;;-0.25;100.00;100775.50;4975066;28;20070;-55
2023/03/11 01:41:20;;;;;;;5.78;0.98;;;;;;;-0.63;100.00;100703.56;4972765;28;20035;-56
2023/03/11 01:43:50;;;;;;;3.90;1.00;;;;;;;-0.67;100.00;100695.75;4972054;28;20093;-57
2023/03/11 01:46:26;;;;;;;3.72;1.50;;;;;;;-0.74;100.00;100704.31;4973412;28;20027;-55
2023/03/11 01:48:57;;;;;;;3.63;0.82;;;;;;;-0.92;100.00;100686.00;4974543;28;20046;-56
2023/03/11 01:51:34;;;;;;;4.20;0.80;;;;;;;-0.54;100.00;100751.03;4974684;28;20039;-56
2023/03/11 01:54:12;;;;;;;1.85;0.68;;;;;;;-0.69;100.00;100733.66;4972585;28;20030;-57
2023/03/11 01:56:38;;;;;;;10.82;0.98;;;;;;;-0.34;100.00;100796.09;4989563;28;20486;-56
2023/03/11 01:59:05;;;;;;;5.97;1.10;;;;;;;-0.41;100.00;100782.25;4956409;28;20043;-57
2023/03/11 02:01:31;;;;;;;2.50;1.00;;;;;;;-0.44;100.00;100791.69;4972385;28;20038;-56
2023/03/11 02:03:56;;;;;;;5.80;1.38;;;;;;;-0.95;100.00;100724.72;4972448;28;20085;-55
2023/03/11 02:06:23;;;;;;;4.57;0.85;;;;;;;-0.73;100.00;100775.84;4974555;28;20430;-58
2023/03/11 02:08:48;;;;;;;4.00;0.90;;;;;;;-0.74;100.00;100781.84;4974267;28;20038;-55
2023/03/11 02:11:26;;;;;;;1.95;0.73;;;;;;;-1.34;100.00;100686.34;4974273;28;20042;-57
2023/03/11 02:13:53;;;;;;;5.07;0.88;;;;;;;-0.98;100.00;100753.09;4986632;28;20053;-57
2023/03/11 02:16:19;;;;;;;5.15;1.10;;;;;;;-0.86;100.00;100785.13;4973549;28;20031;-56
2023/03/11 02:18:44;;;;;;;4.53;1.08;;;;;;;-0.85;100.00;100788.59;4973525;28;20473;-55
2023/03/11 02:21:22;;;;;;;1.65;0.70;;;;;;;-0.90;100.00;100783.34;4974593;28;20382;-55
2023/03/11 02:24:02;;;;;;;4.22;0.95;;;;;;;-1.44;100.00;100707.72;4972194;28;20082;-54
2023/03/11 02:26:48;;;;;;;4.10;0.70;;;;;;;-1.06;100.00;100781.44;4973946;28;20039;-55
2023/03/11 02:29:13;;;;;;;5.47;1.02;;;;;;;-1.08;100.00;100779.69;4974053;28;20078;-55
2023/03/11 02:31:40;;;;;;;4.80;0.80;;;;;;;-1.67;100.00;100685.91;4984089;28;20082;-52
2023/03/11 02:34:08;;;;;;;3.58;0.95;;;;;;;-1.19;100.00;100785.56;4962919;28;20031;-54
2023/03/11 02:36:40;;;;;;;12.27;1.08;;;;;;;-1.27;100.00;100757.88;4988732;28;20040;-56
2023/03/11 02:39:07;;;;;;;7.53;1.17;;;;;;;-1.54;100.00;100698.97;4972665;28;20077;-55
2023/03/11 02:41:36;;;;;;;2.13;0.80;;;;;;;-1.14;100.00;100768.41;4972491;28;20046;-53
2023/03/11 02:44:02;;;;;;;3.47;1.20;;;;;;;-1.32;100.00;100725.97;4973001;28;20031;-54
2023/03/11 02:46:27;;;;;;;5.43;0.93;;;;;;;-1.10;100.00;100765.84;4973562;28;20093;-54
2023/03/11 02:48:53;;;;;;;9.77;2.55;;;;;;;-1.55;100.00;100698.97;4971614;28;20042;-57
2023/03/11 02:51:19;;;;;;;9.65;1.25;;;;;;;-1.04;100.00;100774.56;4971443;28;20088;-56
2023/03/11 02:53:48;;;;;;;7.65;1.17;;;;;;;-1.04;100.00;100789.19;4987838;28;20452;-55
2023/03/11 02:56:13;;;;;;;8.15;1.00;;;;;;;-1.16;100.00;100769.22;4973610;28;20031;-55
2023/03/11 02:58:39;;;;;;;4.82;1.33;;;;;;;-1.54;100.00;100692.94;4972267;28;20475;-55
2023/03/11 03:01:04;;;;;;;4.38;0.88;;;;;;;-1.14;100.00;100781.31;4973523;28;20513;-55
2023/03/11 03:03:29;;;;;;;5.32;0.95;;;;;;;-1.20;100.00;100795.88;4971674;28;20389;-54
2023/03/11 03:05:55;;;;;;;4.10;0.82;;;;;;;-1.30;100.00;100802.63;4973369;28;20129;-54
2023/03/11 03:08:21;;;;;;;2.40;0.88;;;;;;;-1.39;100.00;100796.44;4971501;28;20097;-54
2023/03/11 03:10:46;;;;;;;4.07;1.00;;;;;;;-1.99;100.00;100722.41;4973432;28;20090;-55
2023/03/11 03:13:12;;;;;;;4.78;1.00;;;;;;;-1.59;100.00;100800.44;4973439;28;20524;-55
2023/03/11 03:15:37;;;;;;;5.43;1.00;;;;;;;-2.09;100.00;100738.56;4972458;28;20134;-55
2023/03/11 03:18:02;;;;;;;4.07;0.80;;;;;;;-2.31;100.00;100716.69;4970966;28;20454;-56
2023/03/11 03:20:28;;;;;;;6.13;1.20;;;;;;;-1.93;100.00;100805.06;4971912;28;20034;-55
2023/03/11 03:22:53;;;;;;;2.28;0.98;;;;;;;-2.50;100.00;100722.38;4973094;28;20039;-53
2023/03/11 03:25:19;;;;;;;2.22;0.75;;;;;;;-2.07;100.00;100814.22;4972193;28;20026;-55
2023/03/11 03:27:44;;;;;;;6.22;1.50;;;;;;;-2.13;100.00;100832.16;4972607;28;20117;-55
2023/03/11 03:30:10;;;;;;;10.00;1.33;;;;;;;-2.28;100.00;100796.66;4987138;28;20053;-55
2023/03/11 03:32:36;;;;;;;5.68;1.40;;;;;;;-2.23;100.00;100831.97;4972861;28;20122;-53
2023/03/11 03:35:01;;;;;;;3.35;0.77;;;;;;;-2.29;100.00;100823.28;4971885;28;20070;-56
2023/03/11 03:37:27;;;;;;;4.65;1.48;;;;;;;-2.75;100.00;100743.38;4970915;28;20438;-56
2023/03/11 03:39:53;;;;;;;2.42;1.27;;;;;;;-2.35;100.00;100820.59;4971417;28;20035;-56
2023/03/11 03:42:19;;;;;;;5.45;1.20;;;;;;;-2.48;100.00;100808.31;4972800;28;20039;-54
2023/03/11 03:44:44;;;;;;;5.95;1.48;;;;;;;-2.77;100.00;100768.22;4970687;28;20518;-54
2023/03/11 03:47:10;;;;;;;6.25;1.95;;;;;;;-2.56;100.00;100809.88;4972814;28;20038;-55
2023/03/11 03:49:36;;;;;;;4.80;1.10;;;;;;;-2.48;100.00;100839.22;4972769;28;20039;-55
2023/03/11 03:52:01;;;;;;;10.68;1.55;;;;;;;-2.51;100.00;100834.00;4972130;28;20042;-55
2023/03/11 03:54:26;;;;;;;8.55;1.77;;;;;;;-2.60;100.00;100815.81;4970975;28;20509;-53
2023/03/11 03:56:52;;;;;;;5.85;1.58;;;;;;;-2.98;100.00;100758.34;4973042;28;20074;-52
2023/03/11 03:59:17;;;;;;;6.60;1.30;;;;;;;-2.96;100.00;100758.38;4972643;28;20169;-54
2023/03/11 04:01:42;;;;;;;3.85;1.52;;;;;;;-2.62;100.00;100798.56;4986689;28;20038;-53
2023/03/11 04:04:07;;;;;;;3.70;1.27;;;;;;;-2.85;100.00;100759.47;4971720;28;20393;-53
2023/03/11 04:06:33;;;;;;;9.70;1.40;;;;;;;-2.41;100.00;100856.56;4971399;28;20439;-54
2023/03/11 04:08:58;;;;;;;4.82;1.15;;;;;;;-2.46;100.00;100826.38;4972109;28;20086;-53
2023/03/11 04:11:24;;;;;;;2.95;1.30;;;;;;;-2.48;100.00;100822.91;4972761;28;20054;-56
2023/03/11 04:13:49;;;;;;;2.97;1.05;;;;;;;-2.57;100.00;100810.69;4971806;28;20057;-52
2023/03/11 04:16:19;;;;;;;5.90;1.55;;;;;;;-2.83;100.00;100762.09;4987568;28;20546;-53
2023/03/11 04:18:45;;;;;;;2.45;0.85;;;;;;;-2.89;100.00;100761.09;4972544;28;20431;-55
2023/03/11 04:21:10;;;;;;;3.20;1.33;;;;;;;-2.59;100.00;100812.38;4971652;28;20031;-51
2023/03/11 04:23:36;;;;;;;2.85;1.67;;;;;;;-2.88;100.00;100769.69;4972640;28;20054;-54
2023/03/11 04:26:01;;;;;;;2.78;1.15;;;;;;;-2.57;100.00;100815.84;4970652;28;20090;-52
2023/03/11 04:28:27;;;;;;;4.45;1.38;;;;;;;-2.53;100.00;100840.84;4975988;28;20082;-55
2023/03/11 04:30:52;;;;;;;3.88;1.30;;;;;;;-2.58;100.00;100821.84;4976208;28;20129;-52
2023/03/11 04:33:18;;;;;;;7.40;1.20;;;;;;;-2.57;100.00;100828.72;4975954;28;20043;-54
2023/03/11 04:35:43;;;;;;;5.03;1.08;;;;;;;-3.07;100.00;100750.44;4990325;28;20031;-55
2023/03/11 04:38:08;;;;;;;2.55;1.10;;;;;;;-3.11;100.00;100748.63;4976450;28;20474;-52
2023/03/11 04:40:36;;;;;;;4.63;1.40;;;;;;;-3.09;100.00;100762.41;4991135;28;20370;-55
2023/03/11 04:43:01;;;;;;;4.13;1.30;;;;;;;-3.08;100.00;100779.59;4975268;28;20347;-54
2023/03/11 04:45:26;;;;;;;5.40;1.20;;;;;;;-2.78;100.00;100838.63;4975539;28;20043;-56
2023/03/11 04:47:52;;;;;;;3.22;1.00;;;;;;;-2.78;100.00;100840.31;4975726;28;20041;-56
2023/03/11 04:50:17;;;;;;;5.28;0.95;;;;;;;-3.16;100.00;100788.88;4974448;28;20122;-54
2023/03/11 04:52:43;;;;;;;5.00;1.17;;;;;;;-2.83;100.00;100847.09;4975342;28;20065;-53
2023/03/11 04:55:09;;;;;;;7.03;1.17;;;;;;;-3.44;100.00;100750.47;4963966;28;20062;-52
2023/03/11 04:57:35;;;;;;;4.25;1.40;;;;;;;-3.02;100.00;100832.94;4954947;28;20031;-53
2023/03/11 05:00:01;;;;;;;5.65;1.00;;;;;;;-2.97;100.00;100859.63;4974696;28;20074;-53
2023/03/11 05:02:26;;;;;;;4.25;1.17;;;;;;;-3.29;100.00;100801.41;4975541;28;20030;-53
2023/03/11 05:04:52;;;;;;;4.05;1.20;;;;;;;-3.04;100.00;100865.50;4974772;28;20031;-54
2023/03/11 05:07:17;;;;;;;5.20;0.93;;;;;;;-3.07;100.00;100863.75;4975848;28;20118;-54
2023/03/11 05:09:42;;;;;;;7.35;1.92;;;;;;;-3.95;100.00;100721.84;4975612;28;20027;-53
2023/03/11 05:12:10;;;;;;;3.13;1.35;;;;;;;-3.24;100.00;100844.44;4975007;28;20082;-51
2023/03/11 05:14:36;;;;;;;6.35;1.63;;;;;;;-3.17;100.00;100866.94;4988917;28;20064;-53
2023/03/11 05:17:01;;;;;;;2.92;1.20;;;;;;;-3.21;100.00;100870.25;4990303;28;20066;-52
2023/03/11 05:19:29;;;;;;;4.97;1.23;;;;;;;-3.31;100.00;100858.00;4990149;28;20046;-55
2023/03/11 05:21:55;;;;;;;7.65;1.45;;;;;;;-3.25;100.00;100876.19;4989984;28;20050;-53
2023/03/11 05:24:20;;;;;;;4.28;1.60;;;;;;;-3.29;100.00;100861.50;4973402;28;20513;-52
2023/03/11 05:26:46;;;;;;;4.30;1.15;;;;;;;-3.55;100.00;100827.41;4975049;28;20038;-52
2023/03/11 05:29:11;;;;;;;7.72;1.38;;;;;;;-3.81;100.00;100791.59;4974964;28;20050;-53
2023/03/11 05:31:37;;;;;;;3.83;1.38;;;;;;;-3.70;100.00;100803.91;4974051;28;20039;-53
2023/03/11 05:34:02;;;;;;;4.00;1.48;;;;;;;-3.44;100.00;100856.84;4971602;28;20410;-56
2023/03/11 05:36:27;;;;;;;8.45;1.63;;;;;;;-3.34;100.00;100885.38;4955408;28;20038;-54
2023/03/11 05:38:53;;;;;;;3.30;1.55;;;;;;;-3.45;100.00;100861.97;4955249;28;20043;-55
2023/03/11 05:41:18;;;;;;;2.65;1.40;;;;;;;-3.81;100.00;100805.34;4955705;28;20039;-56
2023/03/11 05:43:44;;;;;;;5.07;1.70;;;;;;;-3.45;100.00;100875.72;4955458;28;20062;-54
2023/03/11 05:46:10;;;;;;;4.90;1.40;;;;;;;-3.81;100.00;100818.19;4972595;28;20086;-57
2023/03/11 05:48:36;;;;;;;11.27;1.70;;;;;;;-4.01;100.00;100786.84;4974949;28;20061;-54
2023/03/11 05:51:06;;;;;;;8.45;1.95;;;;;;;-3.48;100.00;100893.66;4974663;28;20027;-54
2023/03/11 05:53:31;;;;;;;4.90;1.52;;;;;;;-3.71;100.00;100855.31;4974839;28;20086;-54
2023/03/11 05:55:57;;;;;;;5.75;1.95;;;;;;;-3.54;100.00;100885.78;4974025;28;20403;-52
2023/03/11 05:58:23;;;;;;;4.95;1.67;;;;;;;-3.97;100.00;100817.78;4972985;28;20042;-56
2023/03/11 06:00:48;;;;;;;7.43;2.25;;;;;;;-3.65;100.00;100876.88;4974396;28;20035;-56
2023/03/11 06:03:13;;;;;;;5.22;1.63;;;;;;;-3.91;100.00;100831.66;4974406;28;20097;-54
2023/03/11 06:05:48;;;;;;;4.32;1.70;;;;;;;-3.91;100.00;100830.81;4973212;28;20034;-58
2023/03/11 06:08:14;;;;;;;7.28;2.10;;;;;;;-3.53;100.00;100908.06;4988925;28;20040;-57
2023/03/11 06:10:40;;;;;;;6.80;1.88;;;;;;;-3.59;100.00;100907.91;4974780;28;20541;-55
2023/03/11 06:13:05;;;;;;;3.63;1.85;;;;;;;-3.54;100.00;100913.19;4989527;28;20030;-56
2023/03/11 06:15:35;;;;;;;4.68;2.10;;;;;;;-3.55;100.00;100911.44;4972158;28;20089;-54
2023/03/11 06:18:00;;;;;;;7.18;1.88;;;;;;;-3.52;100.00;100907.25;4973081;28;20030;-58
2023/03/11 06:20:26;;;;;;;7.82;2.83;;;;;;;-3.56;100.00;100909.72;4974193;28;20041;-56
2023/03/11 06:22:51;;;;;;;8.43;2.63;;;;;;;-3.48;100.00;100941.66;4971431;28;20154;-54
2023/03/11 06:25:17;;;;;;;7.63;2.00;;;;;;;-3.53;100.00;100915.78;4973009;28;20031;-57
2023/03/11 06:27:43;;;;;;;4.18;2.03;;;;;;;-3.46;100.00;100933.16;4973850;28;20058;-56
2023/03/11 06:30:09;;;;;;;4.03;1.80;;;;;;;-3.45;100.00;100926.31;4956721;28;20037;-55
2023/03/11 06:32:35;;;;;;;8.00;2.42;;;;;;;-3.87;100.00;100855.75;4973338;28;20141;-57
2023/03/11 06:35:02;;;;;;;6.82;2.75;;;;;;;-3.92;100.00;100832.50;4970592;28;20050;-54
2023/03/11 06:37:27;;;;;;;9.57;2.67;;;;;;;-3.74;100.00;100860.38;4970376;28;20043;-56
2023/03/11 06:39:53;;;;;;;9.35;2.63;;;;;;;-3.34;100.00;100918.84;4972583;28;20082;-54
2023/03/11 06:42:19;;;;;;;7.93;2.42;;;;;;;-3.50;100.00;100892.72;4973480;28;20439;-56
2023/03/11 06:44:46;;;;;;;9.45;2.85;;;;;;;-3.18;100.00;100939.84;4972217;28;20410;-58
2023/03/11 06:47:12;;;;;;;8.50;3.03;;;;;;;-3.12;100.00;100941.69;4972879;28;20081;-56
2023/03/11 06:49:39;;;;;;;8.20;3.00;;;;;;;-3.57;100.00;100866.81;4987290;28;20066;-54
2023/03/11 06:52:05;;;;;;;6.43;2.63;;;;;;;-3.01;100.00;100938.56;4972297;28;20042;-56
2023/03/11 06:54:31;;;;;;;5.97;2.90;;;;;;;-2.74;100.00;100948.59;4973556;28;20048;-58
2023/03/11 06:56:56;;;;;;;9.93;4.20;;;;;;;-2.57;100.00;100944.69;4971802;28;20058;-57
2023/03/11 06:59:21;;;;;;;6.53;3.45;;;;;;;-2.40;100.00;100953.69;4971375;28;20386;-55
2023/03/11 07:01:47;;;;;;;6.55;3.70;;;;;;;-2.29;100.00;100943.59;4971648;28;20089;-56
2023/03/11 07:04:12;;;;;;;11.13;3.42;;;;;;;-2.44;100.00;100889.13;4988247;28;20058;-58
2023/03/11 07:06:37;;;;;;;9.07;3.65;;;;;;;-2.43;100.00;100872.84;4967582;28;20058;-52
2023/03/11 07:09:03;;;;;;;7.10;3.92;;;;;;;-2.19;100.00;100898.25;4987244;28;20035;-55
2023/03/11 07:11:28;;;;;;;7.88;4.30;;;;;;;-1.89;100.00;100934.94;4971314;28;20074;-57
2023/03/11 07:13:54;;;;;;;6.95;4.35;;;;;;;-1.76;100.00;100953.28;4972064;28;20168;-56
2023/03/11 07:16:24;;;;;;;7.60;4.60;;;;;;;-2.21;100.00;100872.41;4973192;28;20106;-54
2023/03/11 07:18:51;;;;;;;10.52;3.65;;;;;;;-1.65;100.00;100948.31;4971971;28;20039;-52
2023/03/11 07:21:18;;;;;;;8.50;4.13;;;;;;;-1.64;100.00;100923.38;4973205;28;20070;-53
2023/03/11 07:23:44;;;;;;;7.68;4.15;;;;;;;-1.47;100.00;100904.75;4970631;28;20034;-55
2023/03/11 07:26:14;;;;;;;5.50;3.47;;;;;;;-0.90;100.00;100927.19;4981871;28;20049;-53
2023/03/11 07:28:39;;;;;;;9.02;4.15;;;;;;;-0.25;100.00;100966.91;4971368;28;20058;-55
2023/03/11 07:31:07;;;;;;;8.57;4.05;;;;;;;0.14;100.00;100972.59;4960217;28;20122;-56
2023/03/11 07:33:32;;;;;;;4.07;2.65;;;;;;;0.66;100.00;100975.72;4954507;28;20027;-51
2023/03/11 07:35:58;;;;;;;5.13;2.60;;;;;;;1.12;100.00;100976.16;4971616;28;20035;-53
2023/03/11 07:38:23;;;;;;;4.78;2.50;;;;;;;1.51;100.00;100962.59;4960519;28;20114;-57
2023/03/11 07:40:57;;;;;;;9.23;2.90;;;;;;;1.57;100.00;100904.69;4958865;28;20130;-51
2023/03/11 07:43:22;;;;;;;7.85;3.20;;;;;;;2.14;100.00;100971.56;4958373;28;20106;-54
2023/03/11 07:45:47;;;;;;;8.52;3.85;;;;;;;2.09;100.00;100927.41;4983545;28;20129;-53
2023/03/11 07:48:13;;;;;;;6.28;3.38;;;;;;;2.08;100.00;100914.41;4963923;28;20035;-52
2023/03/11 07:50:38;;;;;;;7.40;3.35;;;;;;;2.68;100.00;101004.66;4965699;28;20441;-53
2023/03/11 07:53:03;;;;;;;5.72;2.55;;;;;;;2.81;100.00;101009.00;4971651;28;20410;-57
2023/03/11 07:55:29;;;;;;;6.10;3.20;;;;;;;2.79;100.00;101014.19;4956142;28;20046;-54
2023/03/11 07:57:54;;;;;;;4.85;2.35;;;;;;;2.74;100.00;101025.44;4971124;28;20053;-56
2023/03/11 08:00:20;;;;;;;7.63;2.47;;;;;;;2.66;100.00;101033.22;4972266;28;20494;-56
2023/03/11 08:02:45;;;;;;;6.95;2.30;;;;;;;2.58;100.00;101039.25;4974187;28;20438;-52
2023/03/11 08:05:10;;;;;;;8.02;2.30;;;;;;;2.14;100.00;100976.75;4970235;28;20031;-53
2023/03/11 08:07:36;;;;;;;5.97;2.80;;;;;;;2.48;100.00;101038.34;4976324;28;20023;-57
2023/03/11 08:10:01;;;;;;;5.03;2.40;;;;;;;2.56;100.00;101062.66;4964293;28;20043;-56
2023/03/11 08:12:27;;;;;;;7.28;2.13;;;;;;;2.41;100.00;101025.34;4963589;28;20081;-55
2023/03/11 08:14:52;;;;;;;6.03;1.98;;;;;;;2.60;100.00;101053.09;4981101;28;20035;-55
2023/03/11 08:17:17;;;;;;;7.82;2.22;;;;;;;2.69;100.00;101048.81;4970196;28;20398;-55
2023/03/11 08:19:43;;;;;;;6.43;2.22;;;;;;;2.86;100.00;101068.81;4968457;28;20050;-56
2023/03/11 08:22:08;;;;;;;6.93;2.50;;;;;;;2.58;100.00;100995.94;4968824;28;20035;-54
2023/03/11 08:24:34;;;;;;;5.18;2.08;;;;;;;2.80;100.00;100996.88;4975624;28;20118;-57
2023/03/11 08:26:59;;;;;;;5.78;1.70;;;;;;;3.13;100.00;101027.22;4964293;28;20039;-56
2023/03/11 08:29:25;;;;;;;10.40;1.98;;;;;;;3.83;100.00;101091.41;4965167;28;20055;-57
2023/03/11 08:31:50;;;;;;;5.63;1.52;;;;;;;4.40;100.00;101066.09;4969654;28;20113;-54
2023/03/11 08:34:16;;;;;;;5.03;1.40;;;;;;;5.05;100.00;101074.47;4967785;28;20039;-58
2023/03/11 08:36:41;;;;;;;4.40;1.73;;;;;;;5.28;100.00;101024.75;4973708;28;20058;-52
2023/03/11 08:39:07;;;;;;;8.52;1.80;;;;;;;5.83;100.00;101064.28;4975577;28;20122;-57
2023/03/11 08:41:32;;;;;;;4.18;1.70;;;;;;;6.19;100.00;101092.69;4975827;28;20038;-56
2023/03/11 08:43:58;;;;;;;9.85;2.38;;;;;;;6.34;100.00;101104.72;4974342;28;20078;-56
2023/03/11 08:46:29;;;;;;;8.02;2.35;;;;;;;6.86;100.00;101098.88;4971215;28;20043;-57
2023/03/11 08:48:55;;;;;;;4.78;1.13;;;;;;;7.72;100.00;101082.72;4975878;28;20462;-58
2023/03/11 08:51:20;;;;;;;5.45;2.00;;;;;;;8.34;100.00;101072.88;4974070;28;20043;-55
2023/03/11 08:53:46;;;;;;;4.05;1.35;;;;;;;8.99;100.00;101082.88;4974694;28;20097;-57
2023/03/11 08:56:11;;;;;;;3.63;1.17;;;;;;;9.51;100.00;101121.97;4989133;28;20118;-57
2023/03/11 08:58:37;;;;;;;5.20;1.33;;;;;;;9.77;100.00;101128.34;4975705;28;20066;-58
2023/03/11 09:01:03;;;;;;;4.35;1.17;;;;;;;10.11;100.00;101110.81;4973120;28;20089;-60
2023/03/11 09:03:34;;;;;;;5.05;1.35;;;;;;;10.15;100.00;101079.19;4973620;28;20045;-58
2023/03/11 09:06:00;;;;;;;5.13;1.55;;;;;;;11.10;100.00;101122.09;4973394;28;20094;-58
2023/03/11 09:08:26;;;;;;;4.10;1.17;;;;;;;11.06;100.00;101123.09;4990586;28;20122;-57
2023/03/11 09:10:51;;;;;;;5.88;1.58;;;;;;;10.98;100.00;101133.84;4973029;28;20114;-57
2023/03/11 09:13:17;;;;;;;3.92;1.15;;;;;;;10.30;100.00;101061.25;4975518;28;20439;-59
2023/03/11 09:15:42;;;;;;;5.15;1.23;;;;;;;10.23;100.00;101130.72;4973223;28;20513;-57
2023/03/11 09:18:11;;;;;;;3.20;1.30;;;;;;;10.25;100.00;101135.03;4973526;28;20379;-58
2023/03/11 09:20:38;;;;;;;6.20;1.20;;;;;;;10.41;100.00;101130.22;4990287;28;20039;-59
2023/03/11 09:23:03;;;;;;;3.05;1.15;;;;;;;10.10;100.00;101130.13;4975194;28;20033;-59
2023/03/11 09:25:28;;;;;;;2.92;1.10;;;;;;;9.64;100.00;101069.97;4972211;28;20117;-59
2023/03/11 09:27:54;;;;;;;5.65;1.40;;;;;;;10.11;100.00;101119.59;4975147;28;20057;-59
2023/03/11 09:30:19;;;;;;;3.42;1.08;;;;;;;10.62;100.00;101127.84;4975130;28;20047;-59
2023/03/11 09:32:44;;;;;;;5.07;1.40;;;;;;;10.78;100.00;101080.91;4972765;28;20620;-58
2023/03/11 09:35:10;;;;;;;8.68;1.73;;;;;;;11.30;100.00;101102.13;4972020;28;20089;-58
2023/03/11 09:37:35;;;;;;;3.42;0.90;;;;;;;11.16;84.18;101137.72;4972145;28;20117;-58
2023/03/11 09:40:01;;;;;;;4.47;0.85;;;;;;;11.13;84.69;101124.63;4974803;28;20430;-59
2023/03/11 09:42:54;;;;;;;3.42;0.82;;;;;;;11.02;100.00;101061.75;4975176;28;20140;-60
2023/03/11 09:45:31;;;;;;;4.03;1.30;;;;;;;10.76;92.66;101055.53;4973272;28;20030;-59
2023/03/11 09:48:46;;;;;;;4.43;1.52;;;;;;;10.76;100.00;101135.38;4973704;28;20035;-59
2023/03/11 09:51:17;;;;;;;4.43;1.63;;;;;;;9.48;100.00;101063.38;4994511;28;20045;-59
2023/03/11 09:53:44;;;;;;;3.35;1.27;;;;;;;9.34;100.00;101146.91;4977257;28;20054;-58
2023/03/11 09:56:16;;;;;;;7.22;1.55;;;;;;;8.84;100.00;101150.59;4973255;28;20058;-59
2023/03/11 09:58:54;;;;;;;6.07;1.20;;;;;;;8.36;100.00;101071.97;4989384;28;20471;-59
2023/03/11 10:01:32;;;;;;;4.60;1.38;;;;;;;8.39;100.00;101161.09;4974873;28;20062;-58
2023/03/11 10:04:05;;;;;;;1.90;0.98;;;;;;;7.70;100.00;101081.91;4974713;28;20072;-57
2023/03/11 10:06:30;;;;;;;4.47;1.10;;;;;;;7.80;100.00;101143.72;4972453;28;20442;-56
2023/03/11 10:09:05;;;;;;;4.22;0.90;;;;;;;7.46;100.00;101139.03;4973187;28;20050;-57
2023/03/11 10:12:00;;;;;;;6.57;1.00;;;;;;;7.22;100.00;101156.81;4989626;28;20022;-57
2023/03/11 10:14:38;;;;;;;7.63;1.10;;;;;;;7.31;100.00;101151.47;4974105;28;20039;-55
2023/03/11 10:17:18;;;;;;;2.47;0.68;;;;;;;7.58;100.00;101049.78;4988338;28;20034;-54
2023/03/11 10:20:05;;;;;;;3.75;1.30;;;;;;;8.42;100.00;101141.78;4987886;28;20035;-57
2023/03/11 10:22:57;;;;;;;2.72;1.27;;;;;;;8.10;100.00;101078.56;4986314;28;20050;-56
2023/03/11 10:25:31;;;;;;;4.15;1.23;;;;;;;8.04;100.00;101092.66;4987096;28;20026;-57
2023/03/11 10:28:04;;;;;;;5.45;1.30;;;;;;;8.08;100.00;101136.28;4971039;28;20485;-58
2023/03/11 10:30:50;;;;;;;5.93;1.70;;;;;;;7.78;100.00;101145.50;4974198;28;20141;-57
2023/03/11 10:33:32;;;;;;;4.88;1.67;;;;;;;7.85;100.00;101149.75;4989044;28;20121;-56
2023/03/11 10:36:04;;;;;;;5.60;1.35;;;;;;;7.83;100.00;101134.94;4987989;28;20340;-57
2023/03/11 10:38:34;;;;;;;5.90;1.30;;;;;;;8.02;100.00;101149.50;4987212;28;20038;-57
2023/03/11 10:41:03;;;;;;;3.92;1.20;;;;;;;8.01;100.00;101083.97;4989062;28;20041;-57
2023/03/11 10:43:40;;;;;;;5.10;1.50;;;;;;;8.98;100.00;101140.69;4972542;28;20061;-56
2023/03/11 10:46:17;;;;;;;9.55;1.52;;;;;;;9.46;100.00;101071.28;4972396;28;20027;-57
2023/03/11 10:48:43;;;;;;;3.80;1.00;;;;;;;10.09;100.00;101129.28;4989036;28;20037;-57
2023/03/11 10:51:13;;;;;;;5.85;1.17;;;;;;;10.67;100.00;101154.06;4974036;28;20039;-58
2023/03/11 10:53:47;;;;;;;5.38;1.33;;;;;;;10.64;100.00;101091.84;4973301;28;20466;-55
2023/03/11 10:56:36;;;;;;;4.88;1.20;;;;;;;12.22;100.00;101145.72;4972351;28;20063;-58
2023/03/11 10:59:05;;;;;;;3.40;1.48;;;;;;;11.68;93.65;101098.25;4973440;28;20137;-58
2023/03/11 11:01:30;;;;;;;7.57;1.40;;;;;;;12.10;99.01;101116.25;4972257;28;20149;-58
2023/03/11 11:03:59;;;;;;;5.72;2.30;;;;;;;12.32;99.91;101104.00;4972360;28;20426;-58
2023/03/11 11:06:34;;;;;;;3.20;1.27;;;;;;;12.80;95.97;101151.56;4973695;28;20034;-56
2023/03/11 11:09:20;;;;;;;4.53;2.03;;;;;;;12.85;87.60;101094.16;4988516;28;20533;-57
2023/03/11 11:12:13;;;;;;;3.95;1.42;;;;;;;13.54;73.18;101149.59;4972569;28;20053;-58
2023/03/11 11:14:42;;;;;;;3.42;1.20;;;;;;;13.83;74.37;101099.97;4977728;28;20372;-57
2023/03/11 11:17:29;;;;;;;6.32;1.25;;;;;;;14.84;73.71;101152.94;4971263;28;20039;-58
2023/03/11 11:19:57;;;;;;;2.58;1.08;;;;;;;15.05;68.07;101162.59;4988309;28;20089;-57
2023/03/11 11:22:23;;;;;;;4.78;1.10;;;;;;;15.45;62.35;101109.41;4973325;28;20078;-58